Time;durP1;ratioP1;P1;durP2;ratioP2;P2;SDS_P1;SDS_P2;PMS_P1;PMS_P2;Temp;Humidity;BMP_temperature;BMP_pressure;BME280_temperature;BME280_humidity;BME280_pressure;Samples;Min_cycle;Max_cycle;Signal;HPM_P1;HPM_P2
2022/03/10 00:00:51;;;;;;;36.22;19.63;;;;;;;1.47;75.19;102150.13;5242497;28;20478;-67
2022/03/10 00:03:23;;;;;;;31.95;19.05;;;;;;;1.44;75.34;102157.19;5245226;28;20029;-67
2022/03/10 00:05:54;;;;;;;40.08;21.13;;;;;;;1.43;75.59;102150.22;5240094;28;20041;-67
2022/03/10 00:08:25;;;;;;;38.78;20.30;;;;;;;1.40;76.00;102164.31;5240494;28;20029;-67
2022/03/10 00:10:56;;;;;;;35.67;19.60;;;;;;;1.35;75.71;102161.72;5239357;28;20060;-67
2022/03/10 00:13:30;;;;;;;38.08;20.08;;;;;;;1.34;76.26;102164.38;5244037;28;20045;-67
2022/03/10 00:16:01;;;;;;;39.08;20.80;;;;;;;1.30;76.81;102170.59;5245721;28;20025;-67
2022/03/10 00:18:32;;;;;;;38.67;19.58;;;;;;;1.26;76.79;102175.03;5242699;28;20489;-67
2022/03/10 00:21:03;;;;;;;39.85;20.58;;;;;;;1.30;77.87;102163.56;5238613;28;20045;-67
2022/03/10 00:23:35;;;;;;;41.67;21.25;;;;;;;1.24;77.39;102170.69;5245950;28;20027;-67
2022/03/10 00:26:06;;;;;;;37.45;21.75;;;;;;;1.17;77.29;102167.31;5240094;28;20671;-67
2022/03/10 00:28:38;;;;;;;35.60;19.90;;;;;;;1.16;76.88;102166.44;5252492;28;20052;-67
2022/03/10 00:31:09;;;;;;;40.97;21.27;;;;;;;1.09;77.58;102163.91;5240216;28;20033;-67
2022/03/10 00:33:40;;;;;;;40.38;21.33;;;;;;;1.08;77.49;102163.06;5245805;28;20041;-67
2022/03/10 00:36:11;;;;;;;35.17;20.45;;;;;;;1.03;77.84;102167.50;5242892;28;20061;-67
2022/03/10 00:38:43;;;;;;;33.83;20.33;;;;;;;1.06;78.75;102161.34;5251797;28;20337;-67
2022/03/10 00:41:14;;;;;;;41.53;22.10;;;;;;;0.99;79.04;102163.19;5246385;28;20040;-67
2022/03/10 00:43:46;;;;;;;38.92;21.35;;;;;;;0.92;79.13;102166.81;5245359;28;20108;-67
2022/03/10 00:46:17;;;;;;;36.95;20.85;;;;;;;0.88;78.65;102171.25;5248621;28;20063;-67
2022/03/10 00:48:48;;;;;;;39.30;21.15;;;;;;;0.88;79.54;102166.00;5244750;28;20025;-67
2022/03/10 00:51:19;;;;;;;40.17;22.17;;;;;;;0.86;79.71;102164.28;5245327;28;20067;-67
2022/03/10 00:53:51;;;;;;;37.67;21.30;;;;;;;0.82;79.59;102171.31;5243539;28;20425;-67
2022/03/10 00:56:22;;;;;;;40.80;22.02;;;;;;;0.82;80.21;102166.06;5241584;28;20041;-67
2022/03/10 00:58:53;;;;;;;37.55;21.08;;;;;;;0.75;79.85;102172.31;5242600;28;20400;-67
2022/03/10 01:01:24;;;;;;;39.22;21.10;;;;;;;0.74;79.82;102175.84;5247260;28;20536;-67
2022/03/10 01:03:56;;;;;;;37.92;21.85;;;;;;;0.81;80.45;102176.63;5252673;28;20064;-67
2022/03/10 01:06:27;;;;;;;40.63;22.33;;;;;;;0.71;79.84;102167.97;5249568;28;20029;-67
2022/03/10 01:08:58;;;;;;;37.88;20.88;;;;;;;0.66;80.28;102177.69;5253167;28;20037;-67
2022/03/10 01:11:30;;;;;;;38.35;21.90;;;;;;;0.61;80.15;102180.38;5242439;28;20115;-67
2022/03/10 01:14:01;;;;;;;38.75;22.52;;;;;;;0.63;80.84;102175.97;5249533;28;20042;-67
2022/03/10 01:16:32;;;;;;;42.65;22.60;;;;;;;0.60;80.77;102181.28;5245683;28;20056;-67
2022/03/10 01:19:03;;;;;;;38.38;21.65;;;;;;;0.66;81.23;102177.69;5243483;28;20106;-67
2022/03/10 01:21:35;;;;;;;38.15;20.75;;;;;;;0.60;81.46;102172.53;5243583;28;20036;-67
2022/03/10 01:24:06;;;;;;;42.22;22.02;;;;;;;0.54;81.20;102161.22;5243972;28;20037;-67
2022/03/10 01:26:38;;;;;;;36.80;21.80;;;;;;;0.56;81.86;102163.84;5245083;28;20040;-67
2022/03/10 01:29:09;;;;;;;37.58;22.95;;;;;;;0.48;82.02;102169.19;5244162;28;20029;-67
2022/03/10 01:31:40;;;;;;;40.33;21.98;;;;;;;0.54;82.33;102169.09;5249499;28;20094;-67
2022/03/10 01:34:13;;;;;;;41.13;22.10;;;;;;;0.44;81.79;102159.63;5242115;28;20127;-67
2022/03/10 01:36:44;;;;;;;39.47;21.20;;;;;;;0.48;81.91;102166.56;5250646;28;20585;-67
2022/03/10 01:39:16;;;;;;;38.67;22.05;;;;;;;0.40;81.90;102163.16;5248296;28;20040;-67
2022/03/10 01:41:47;;;;;;;49.30;23.90;;;;;;;0.42;82.78;102163.13;5243209;28;20068;-67
2022/03/10 01:44:20;;;;;;;42.50;22.90;;;;;;;0.43;82.49;102168.38;5242812;28;20025;-67
2022/03/10 01:46:52;;;;;;;38.38;21.45;;;;;;;0.37;82.96;102163.19;5244576;28;20392;-67
2022/03/10 01:49:23;;;;;;;37.90;21.45;;;;;;;0.36;83.38;102159.69;5246202;28;20037;-67
2022/03/10 01:51:54;;;;;;;38.65;22.02;;;;;;;0.34;82.72;102161.47;5242573;28;20813;-67
2022/03/10 01:54:26;;;;;;;39.05;22.92;;;;;;;0.41;83.12;102164.91;5248710;28;20061;-67
2022/03/10 01:56:58;;;;;;;39.72;22.30;;;;;;;0.38;83.00;102164.91;5251393;28;20454;-67
2022/03/10 01:59:30;;;;;;;37.75;22.38;;;;;;;0.37;84.08;102165.81;5256191;28;20445;-67
2022/03/10 02:02:01;;;;;;;38.80;22.15;;;;;;;0.31;83.74;102163.28;5249267;28;20475;-67
2022/03/10 02:04:32;;;;;;;41.13;22.52;;;;;;;0.29;83.47;102155.44;5254542;28;20033;-67
2022/03/10 02:07:08;;;;;;;39.65;22.20;;;;;;;0.26;83.96;102158.06;5251500;28;20036;-67
2022/03/10 02:12:30;;;;;;;39.05;21.92;;;;;;;0.18;83.89;102160.78;5243287;28;20057;-67
2022/03/10 02:18:21;;;;;;;37.88;21.48;;;;;;;0.15;84.14;102149.47;5243341;28;20068;-67
2022/03/10 02:20:52;;;;;;;39.40;22.73;;;;;;;0.09;84.39;102137.28;5246670;28;20115;-67
2022/03/10 02:23:23;;;;;;;39.70;22.10;;;;;;;0.10;84.54;102143.41;5244080;28;20120;-67
2022/03/10 02:25:58;;;;;;;41.00;21.67;;;;;;;0.02;84.60;102153.13;5240649;28;20048;-67
2022/03/10 02:28:32;;;;;;;39.78;22.08;;;;;;;-0.01;85.19;102156.66;5247372;28;20147;-67
2022/03/10 02:31:04;;;;;;;40.17;22.05;;;;;;;-0.06;85.11;102156.72;5243410;28;20029;-67
2022/03/10 02:33:35;;;;;;;39.22;21.95;;;;;;;-0.08;85.33;102150.59;5250145;28;20077;-67
2022/03/10 02:36:06;;;;;;;40.50;22.55;;;;;;;-0.04;85.67;102156.69;5240999;28;20052;-67
2022/03/10 02:38:37;;;;;;;39.45;22.02;;;;;;;-0.07;85.81;102156.72;5249435;28;20128;-67
2022/03/10 02:41:09;;;;;;;39.42;22.45;;;;;;;-0.11;85.90;102155.03;5242975;28;20029;-68
2022/03/10 02:43:40;;;;;;;39.72;22.58;;;;;;;-0.12;85.67;102159.38;5248174;28;20082;-67
2022/03/10 02:46:11;;;;;;;37.38;22.75;;;;;;;-0.10;86.23;102157.59;5244907;28;20025;-67
2022/03/10 02:48:42;;;;;;;39.30;22.27;;;;;;;-0.21;85.90;102154.25;5241841;28;20037;-67
2022/03/10 02:51:14;;;;;;;41.35;22.08;;;;;;;-0.21;86.89;102151.63;5237257;28;20033;-67
2022/03/10 02:53:45;;;;;;;43.47;22.50;;;;;;;-0.17;86.13;102155.97;5250133;28;20083;-67
2022/03/10 02:56:16;;;;;;;40.88;22.52;;;;;;;-0.21;86.71;102152.50;5249975;28;20480;-67
2022/03/10 02:58:47;;;;;;;43.70;22.80;;;;;;;-0.22;86.89;102147.25;5241664;28;20033;-67
2022/03/10 03:01:19;;;;;;;42.78;22.67;;;;;;;-0.25;86.90;102150.78;5254173;28;20052;-67
2022/03/10 03:03:50;;;;;;;44.28;22.92;;;;;;;-0.28;86.90;102152.59;5244715;28;20361;-67
2022/03/10 03:06:21;;;;;;;43.58;22.88;;;;;;;-0.31;87.39;102156.06;5253904;28;20033;-67
2022/03/10 03:08:53;;;;;;;43.35;23.83;;;;;;;-0.29;87.34;102158.69;5243830;28;20093;-67
2022/03/10 03:11:24;;;;;;;42.95;21.67;;;;;;;-0.32;87.76;102146.50;5256568;28;20444;-67
2022/03/10 03:13:56;;;;;;;41.55;22.27;;;;;;;-0.33;87.65;102149.97;5247986;28;20076;-67
2022/03/10 03:16:28;;;;;;;43.42;22.48;;;;;;;-0.37;87.79;102157.91;5247996;28;20031;-67
2022/03/10 03:18:59;;;;;;;43.22;23.20;;;;;;;-0.34;88.27;102164.00;5250577;28;20056;-67
2022/03/10 03:21:31;;;;;;;40.72;21.30;;;;;;;-0.42;88.47;102157.97;5248336;28;20040;-67
2022/03/10 03:24:03;;;;;;;36.60;21.27;;;;;;;-0.46;88.45;102159.75;5255585;28;20087;-67
2022/03/10 03:26:34;;;;;;;42.70;22.80;;;;;;;-0.44;88.20;102160.59;5257072;28;20056;-67
2022/03/10 03:29:05;;;;;;;44.20;24.15;;;;;;;-0.48;88.55;102165.88;5250845;28;20112;-67
2022/03/10 03:31:37;;;;;;;38.72;22.20;;;;;;;-0.52;88.54;102158.91;5252000;28;20033;-67
2022/03/10 03:34:11;;;;;;;41.38;23.23;;;;;;;-0.52;89.03;102167.63;5250450;28;20069;-67
2022/03/10 03:36:44;;;;;;;37.28;21.88;;;;;;;-0.54;88.95;102174.66;5248484;28;20024;-67
2022/03/10 03:39:15;;;;;;;40.97;21.98;;;;;;;-0.57;89.02;102171.22;5248090;28;20530;-67
2022/03/10 03:41:47;;;;;;;41.53;22.63;;;;;;;-0.57;89.23;102171.22;5251000;28;20025;-67
2022/03/10 03:44:18;;;;;;;39.95;22.33;;;;;;;-0.62;89.04;102164.22;5235920;28;20434;-67
2022/03/10 03:46:50;;;;;;;41.50;23.65;;;;;;;-0.62;89.24;102161.63;5244571;28;20567;-67
2022/03/10 03:49:21;;;;;;;44.17;23.13;;;;;;;-0.60;89.66;102167.72;5239975;28;20017;-67
2022/03/10 03:51:52;;;;;;;39.42;21.85;;;;;;;-0.61;90.08;102168.59;5244917;28;20032;-67
2022/03/10 03:54:24;;;;;;;39.25;22.30;;;;;;;-0.64;89.63;102173.88;5234939;28;20116;-67
2022/03/10 03:56:55;;;;;;;36.10;21.88;;;;;;;-0.64;89.49;102191.34;5234346;28;20043;-67
2022/03/10 03:59:27;;;;;;;41.85;22.70;;;;;;;-0.68;89.74;102181.78;5243924;28;20020;-67
2022/03/10 04:01:58;;;;;;;41.03;21.95;;;;;;;-0.68;90.08;102184.41;5237794;28;20247;-67
2022/03/10 04:04:30;;;;;;;41.60;21.95;;;;;;;-0.70;90.17;102188.78;5241300;28;20017;-67
2022/03/10 04:07:01;;;;;;;41.85;22.73;;;;;;;-0.76;89.84;102187.09;5239050;28;20025;-67
2022/03/10 04:09:32;;;;;;;50.63;24.38;;;;;;;-0.74;90.02;102189.69;5242811;28;20029;-67
2022/03/10 04:12:04;;;;;;;42.25;23.40;;;;;;;-0.76;90.42;102194.09;5238919;28;20050;-68
2022/03/10 04:14:35;;;;;;;42.67;23.30;;;;;;;-0.77;90.15;102195.81;5237455;28;20549;-67
2022/03/10 04:17:06;;;;;;;38.45;21.45;;;;;;;-0.83;90.11;102198.47;5242231;28;20036;-67
2022/03/10 04:19:38;;;;;;;41.70;22.10;;;;;;;-0.86;90.48;102191.53;5245329;28;20528;-67
2022/03/10 04:22:09;;;;;;;39.78;21.33;;;;;;;-0.81;91.00;102194.09;5244369;28;20033;-67
2022/03/10 04:24:41;;;;;;;40.88;22.77;;;;;;;-0.87;91.11;102194.16;5245326;28;20506;-67
2022/03/10 04:27:12;;;;;;;43.33;21.77;;;;;;;-0.83;90.84;102188.88;5257727;28;20115;-67
2022/03/10 04:29:44;;;;;;;39.63;21.48;;;;;;;-0.92;91.23;102196.81;5254171;28;20479;-67
2022/03/10 04:32:15;;;;;;;45.33;22.80;;;;;;;-0.93;91.05;102183.72;5252838;28;20036;-67
2022/03/10 04:34:47;;;;;;;43.72;23.60;;;;;;;-0.92;90.66;102190.69;5239860;28;20448;-67
2022/03/10 04:37:18;;;;;;;40.28;22.27;;;;;;;-0.97;91.22;102195.97;5250748;28;20032;-67
2022/03/10 04:39:50;;;;;;;42.30;22.17;;;;;;;-0.97;90.92;102190.72;5242771;28;20024;-67
2022/03/10 04:42:21;;;;;;;42.90;23.13;;;;;;;-0.99;91.22;102187.25;5246196;28;20029;-67
2022/03/10 04:44:52;;;;;;;41.63;22.17;;;;;;;-0.98;91.63;102188.97;5238882;28;20394;-67
2022/03/10 04:47:24;;;;;;;40.53;21.75;;;;;;;-0.98;91.11;102186.34;5241514;28;20094;-67
2022/03/10 04:49:56;;;;;;;42.45;22.08;;;;;;;-1.01;91.57;102196.88;5239435;28;20033;-67
2022/03/10 04:52:28;;;;;;;46.17;23.05;;;;;;;-1.03;91.58;102189.00;5242684;28;20029;-68
2022/03/10 04:55:00;;;;;;;42.33;22.42;;;;;;;-1.05;91.63;102188.16;5235884;28;20611;-67
2022/03/10 04:57:32;;;;;;;40.72;22.40;;;;;;;-1.06;91.84;102188.16;5239834;28;20059;-67
2022/03/10 05:00:08;;;;;;;38.45;21.65;;;;;;;-1.11;91.55;102195.16;5248995;28;20108;-67
2022/03/10 05:02:40;;;;;;;43.80;22.35;;;;;;;-1.11;91.91;102192.56;5235755;28;20036;-67
2022/03/10 05:05:13;;;;;;;41.20;20.90;;;;;;;-1.16;91.93;102186.50;5243188;28;20025;-67
2022/03/10 05:07:45;;;;;;;38.45;21.48;;;;;;;-1.13;92.09;102195.22;5241194;28;20029;-67
2022/03/10 05:10:18;;;;;;;41.65;22.30;;;;;;;-1.20;91.80;102193.50;5250018;28;20126;-67
2022/03/10 05:12:56;;;;;;;41.85;21.85;;;;;;;-1.14;92.18;102203.94;5239470;28;20092;-67
2022/03/10 05:15:32;;;;;;;43.97;23.85;;;;;;;-1.23;92.19;102197.00;5241441;28;20045;-67
2022/03/10 05:18:04;;;;;;;44.00;23.38;;;;;;;-1.23;92.09;102199.63;5241773;28;20122;-67
2022/03/10 05:20:35;;;;;;;40.90;21.60;;;;;;;-1.19;92.61;102203.97;5241313;28;21912;-67
2022/03/10 05:23:06;;;;;;;40.28;21.70;;;;;;;-1.22;92.58;102201.34;5236151;28;20246;-67
2022/03/10 05:25:40;;;;;;;39.63;21.48;;;;;;;-1.25;92.51;102210.97;5236189;28;20027;-67
2022/03/10 05:28:13;;;;;;;41.85;21.65;;;;;;;-1.24;92.84;102210.09;5241048;28;20079;-67
2022/03/10 05:30:47;;;;;;;42.75;22.20;;;;;;;-1.25;92.68;102205.72;5247967;28;20970;-67
2022/03/10 05:33:18;;;;;;;42.20;23.02;;;;;;;-1.28;92.38;102203.16;5240524;28;20072;-67
2022/03/10 05:35:49;;;;;;;39.55;21.52;;;;;;;-1.28;92.86;102197.91;5246153;28;20076;-67
2022/03/10 05:38:20;;;;;;;38.75;21.13;;;;;;;-1.30;92.71;102200.53;5237830;28;21677;-67
2022/03/10 05:40:52;;;;;;;39.20;21.13;;;;;;;-1.30;92.85;102205.78;5238974;28;20093;-67
2022/03/10 05:43:24;;;;;;;39.53;21.40;;;;;;;-1.33;92.91;102210.16;5246412;28;20048;-67
2022/03/10 05:45:55;;;;;;;38.35;21.10;;;;;;;-1.36;92.66;102204.91;5242351;28;20025;-67
2022/03/10 05:48:26;;;;;;;39.67;22.02;;;;;;;-1.35;92.98;102206.66;5244066;28;20056;-67
2022/03/10 05:50:58;;;;;;;41.10;21.20;;;;;;;-1.33;93.29;102202.28;5245919;28;20099;-67
2022/03/10 05:53:29;;;;;;;41.35;21.98;;;;;;;-1.35;92.86;102201.44;5245564;28;20445;-67
2022/03/10 05:56:00;;;;;;;41.22;21.98;;;;;;;-1.36;92.61;102204.91;5256435;28;20020;-67
2022/03/10 05:58:32;;;;;;;43.25;21.98;;;;;;;-1.37;92.55;102198.81;5241284;28;20384;-67
2022/03/10 06:01:03;;;;;;;39.25;21.13;;;;;;;-1.38;92.27;102199.72;5236901;28;20467;-67
2022/03/10 06:03:34;;;;;;;43.13;21.30;;;;;;;-1.39;92.34;102198.81;5237793;28;20516;-67
2022/03/10 06:06:06;;;;;;;38.28;21.10;;;;;;;-1.40;92.16;102196.19;5247280;28;20029;-67
2022/03/10 06:08:37;;;;;;;45.97;20.98;;;;;;;-1.37;92.66;102198.81;5246866;28;20345;-67
2022/03/10 06:11:09;;;;;;;43.72;21.98;;;;;;;-1.35;93.00;102204.06;5247385;28;20108;-67
2022/03/10 06:13:41;;;;;;;41.40;22.08;;;;;;;-1.36;92.34;102197.06;5252819;28;20392;-67
2022/03/10 06:16:12;;;;;;;40.55;21.88;;;;;;;-1.33;92.29;102207.53;5258823;28;20025;-67
2022/03/10 06:18:43;;;;;;;42.00;22.35;;;;;;;-1.35;92.49;102202.28;5255775;28;20029;-67
2022/03/10 06:21:15;;;;;;;41.13;21.33;;;;;;;-1.32;92.77;102197.06;5248127;28;20095;-67
2022/03/10 06:23:47;;;;;;;40.85;22.30;;;;;;;-1.31;92.48;102195.31;5247132;28;20035;-67
2022/03/10 06:26:18;;;;;;;42.90;21.55;;;;;;;-1.32;92.45;102199.69;5248669;28;20029;-67
2022/03/10 06:28:49;;;;;;;45.88;22.20;;;;;;;-1.31;92.22;102200.53;5247573;28;20033;-67
2022/03/10 06:31:23;;;;;;;38.17;21.50;;;;;;;-1.26;92.75;102199.63;5256088;28;20494;-67
2022/03/10 06:33:54;;;;;;;39.67;21.95;;;;;;;-1.28;92.22;102214.47;5247888;28;20054;-67
2022/03/10 06:36:26;;;;;;;42.80;22.15;;;;;;;-1.21;92.87;102212.69;5251996;28;20344;-67
2022/03/10 06:38:58;;;;;;;43.47;22.48;;;;;;;-1.24;92.76;102205.72;5255698;28;20084;-67
2022/03/10 06:41:29;;;;;;;41.15;22.23;;;;;;;-1.24;93.00;102203.09;5247631;28;20171;-67
2022/03/10 06:44:00;;;;;;;41.47;21.70;;;;;;;-1.16;92.81;102207.44;5252665;28;20431;-67
2022/03/10 06:46:32;;;;;;;40.97;23.20;;;;;;;-1.09;92.24;102201.31;5251688;28;20033;-67
2022/03/10 06:49:03;;;;;;;43.30;21.95;;;;;;;-1.09;92.10;102207.41;5255468;28;20433;-67
2022/03/10 06:51:35;;;;;;;43.70;23.45;;;;;;;-1.06;91.83;102217.84;5248998;28;20479;-67
2022/03/10 06:54:06;;;;;;;46.88;23.23;;;;;;;-1.02;91.74;102216.06;5250941;28;20548;-67
2022/03/10 06:56:38;;;;;;;40.00;20.33;;;;;;;-0.95;92.37;102222.16;5257008;28;20060;-67
2022/03/10 06:59:10;;;;;;;40.50;22.40;;;;;;;-0.94;92.23;102221.25;5255274;28;20072;-67
2022/03/10 07:01:41;;;;;;;44.20;23.77;;;;;;;-0.92;92.12;102222.13;5253854;28;20024;-67
2022/03/10 07:04:13;;;;;;;43.65;22.90;;;;;;;-0.90;91.74;102217.75;5256879;28;20352;-67
2022/03/10 07:06:44;;;;;;;42.70;21.48;;;;;;;-0.84;91.89;102217.72;5256017;28;20119;-67
2022/03/10 07:09:16;;;;;;;43.65;22.55;;;;;;;-0.84;92.86;102220.34;5256475;28;20039;-67
2022/03/10 07:11:47;;;;;;;44.17;22.27;;;;;;;-0.73;92.10;102222.88;5257149;28;20024;-67
2022/03/10 07:14:18;;;;;;;43.40;23.90;;;;;;;-0.66;91.62;102224.56;5259430;28;20041;-67
2022/03/10 07:16:50;;;;;;;45.35;22.90;;;;;;;-0.53;91.35;102225.34;5248874;28;20083;-67
2022/03/10 07:19:21;;;;;;;40.95;22.75;;;;;;;-0.43;91.69;102229.63;5245593;28;20035;-67
2022/03/10 07:21:53;;;;;;;44.95;21.83;;;;;;;-0.37;90.90;102232.19;5249223;28;20036;-67
2022/03/10 07:24:25;;;;;;;42.92;23.73;;;;;;;-0.25;90.62;102234.72;5249801;28;20248;-68
2022/03/10 07:26:57;;;;;;;43.72;22.70;;;;;;;-0.19;90.21;102228.56;5250593;28;20037;-67
2022/03/10 07:29:28;;;;;;;44.30;22.58;;;;;;;-0.01;90.23;102227.50;5250596;28;20025;-67
2022/03/10 07:31:59;;;;;;;43.75;23.63;;;;;;;0.10;89.64;102228.25;5252439;28;20670;-67
2022/03/10 07:34:31;;;;;;;42.40;22.42;;;;;;;0.14;89.88;102229.97;5252425;28;20064;-67
2022/03/10 07:37:03;;;;;;;45.47;22.30;;;;;;;0.30;89.32;102235.03;5252506;28;20386;-68
2022/03/10 07:39:34;;;;;;;41.33;23.15;;;;;;;0.35;88.87;102230.59;5249117;28;20032;-67
2022/03/10 07:42:05;;;;;;;42.00;22.80;;;;;;;0.54;88.30;102234.75;5253327;28;20108;-67
2022/03/10 07:44:37;;;;;;;39.90;22.73;;;;;;;0.67;87.95;102224.06;5251629;28;20029;-67
2022/03/10 07:47:09;;;;;;;37.65;21.80;;;;;;;0.72;87.17;102223.13;5253827;28;20028;-67
2022/03/10 07:49:40;;;;;;;45.80;22.95;;;;;;;0.84;87.18;102231.75;5254168;28;20033;-67
2022/03/10 07:52:11;;;;;;;40.45;22.33;;;;;;;0.95;87.67;102222.81;5250335;28;20514;-67
2022/03/10 07:54:43;;;;;;;42.25;22.73;;;;;;;1.13;87.00;102216.44;5252193;28;20063;-67
2022/03/10 07:57:14;;;;;;;41.17;20.77;;;;;;;1.23;85.61;102214.53;5250883;28;20503;-67
2022/03/10 07:59:45;;;;;;;46.95;22.83;;;;;;;1.36;85.27;102225.69;5247028;28;20029;-68
2022/03/10 08:02:17;;;;;;;41.58;21.67;;;;;;;1.46;84.95;102222.06;5253358;28;20071;-67
2022/03/10 08:04:48;;;;;;;43.28;21.30;;;;;;;1.68;83.40;102219.91;5251561;28;20029;-67
2022/03/10 08:07:19;;;;;;;39.88;22.33;;;;;;;1.76;82.85;102222.41;5250571;28;20037;-67
2022/03/10 08:09:50;;;;;;;38.47;21.50;;;;;;;1.80;83.40;102215.34;5251603;28;20059;-67
2022/03/10 08:12:26;;;;;;;41.65;21.77;;;;;;;1.88;82.99;102218.69;5251574;28;20052;-68
2022/03/10 08:14:58;;;;;;;40.63;20.92;;;;;;;2.08;81.91;102218.34;5245552;28;20025;-68
2022/03/10 08:17:29;;;;;;;41.50;21.58;;;;;;;2.05;81.90;102226.28;5253520;28;20742;-68
2022/03/10 08:20:00;;;;;;;47.47;22.92;;;;;;;2.18;81.69;102232.19;5249032;28;20018;-68
2022/03/10 08:22:31;;;;;;;38.72;21.27;;;;;;;2.29;81.51;102238.13;5248741;28;20059;-68
2022/03/10 08:25:03;;;;;;;39.78;20.27;;;;;;;2.41;81.47;102229.97;5245329;28;20025;-68
2022/03/10 08:27:34;;;;;;;37.90;20.40;;;;;;;2.62;80.00;102227.81;5253278;28;20035;-68
2022/03/10 08:30:07;;;;;;;42.58;21.88;;;;;;;2.78;79.04;102223.94;5252892;28;21559;-68
2022/03/10 08:32:38;;;;;;;37.15;20.65;;;;;;;2.93;77.75;102228.88;5248462;28;20043;-68
2022/03/10 08:35:09;;;;;;;40.58;20.48;;;;;;;2.99;77.03;102229.63;5252125;28;20037;-68
2022/03/10 08:37:41;;;;;;;36.28;20.25;;;;;;;3.08;77.62;102214.47;5253346;28;20090;-68
2022/03/10 08:40:15;;;;;;;40.08;22.38;;;;;;;3.23;77.83;102220.31;5247462;28;20510;-68
2022/03/10 08:42:49;;;;;;;35.90;21.17;;;;;;;3.45;75.59;102215.34;5252837;28;20087;-66
2022/03/10 08:45:21;;;;;;;37.95;20.65;;;;;;;3.48;76.49;102218.78;5249797;28;20033;-65
2022/03/10 08:47:54;;;;;;;46.42;22.60;;;;;;;3.57;77.47;102215.06;5249032;28;20033;-65
2022/03/10 08:50:26;;;;;;;41.00;20.45;;;;;;;3.70;74.88;102208.56;5255099;28;20506;-65
2022/03/10 08:52:57;;;;;;;38.80;20.88;;;;;;;3.80;74.74;102214.47;5255200;28;20512;-65
2022/03/10 08:55:29;;;;;;;38.38;19.48;;;;;;;4.07;73.87;102209.38;5250369;28;20029;-65
2022/03/10 08:58:00;;;;;;;39.33;21.02;;;;;;;4.09;74.43;102210.19;5252369;28;20037;-66
2022/03/10 09:00:32;;;;;;;35.85;19.25;;;;;;;4.25;72.61;102213.25;5252872;28;20059;-65
2022/03/10 09:03:04;;;;;;;40.63;21.42;;;;;;;4.37;72.77;102215.53;5255695;28;20093;-65
2022/03/10 09:05:37;;;;;;;34.63;20.38;;;;;;;4.50;71.54;102209.00;5251042;28;20029;-65
2022/03/10 09:08:09;;;;;;;37.38;19.67;;;;;;;4.62;70.29;102205.16;5255286;28;20029;-65
2022/03/10 09:10:40;;;;;;;41.70;20.33;;;;;;;4.76;70.17;102203.88;5253724;28;20434;-65
2022/03/10 09:13:11;;;;;;;39.25;20.60;;;;;;;4.90;69.61;102210.47;5255488;28;20110;-66
2022/03/10 09:15:45;;;;;;;39.20;20.58;;;;;;;5.10;69.25;102196.63;5254459;28;20075;-66
2022/03/10 09:18:16;;;;;;;36.90;20.42;;;;;;;5.28;68.07;102191.66;5255401;28;20043;-66
2022/03/10 09:20:48;;;;;;;34.70;19.23;;;;;;;5.40;68.44;102191.22;5254843;28;20506;-66
2022/03/10 09:23:19;;;;;;;35.92;20.10;;;;;;;5.48;68.49;102190.97;5254251;28;20030;-66
2022/03/10 09:25:51;;;;;;;35.38;19.83;;;;;;;5.66;67.67;102190.38;5253115;28;20025;-66
2022/03/10 09:28:22;;;;;;;31.83;18.33;;;;;;;5.98;65.20;102188.38;5251560;28;20021;-66
2022/03/10 09:30:53;;;;;;;37.63;19.45;;;;;;;6.02;67.37;102189.16;5253016;28;20056;-66
2022/03/10 09:33:25;;;;;;;36.15;20.45;;;;;;;6.28;65.92;102182.91;5254978;28;20035;-66
2022/03/10 09:35:57;;;;;;;33.28;19.35;;;;;;;6.38;65.69;102171.03;5251155;28;20479;-66
2022/03/10 09:38:28;;;;;;;33.13;19.65;;;;;;;6.61;63.67;102169.31;5256736;28;20028;-66
2022/03/10 09:40:59;;;;;;;34.88;18.63;;;;;;;6.89;63.90;102173.53;5252210;28;20076;-66
2022/03/10 09:43:31;;;;;;;33.80;19.52;;;;;;;6.96;64.22;102164.41;5255580;28;20032;-68
2022/03/10 09:46:04;;;;;;;33.08;18.80;;;;;;;7.11;64.11;102170.88;5250904;28;20063;-68
2022/03/10 09:48:36;;;;;;;34.20;19.23;;;;;;;7.19;64.02;102166.13;5255495;28;20033;-68
2022/03/10 09:51:09;;;;;;;32.05;18.55;;;;;;;7.33;62.89;102160.25;5254325;28;20078;-68
2022/03/10 09:53:41;;;;;;;33.20;19.50;;;;;;;7.46;61.69;102167.63;5256148;28;20033;-68
2022/03/10 09:56:13;;;;;;;32.70;18.77;;;;;;;7.61;62.38;102166.13;5251247;28;20491;-68
2022/03/10 09:58:44;;;;;;;35.75;20.27;;;;;;;7.66;62.99;102155.28;5254079;28;20382;-68
2022/03/10 10:01:15;;;;;;;34.33;19.02;;;;;;;7.75;63.56;102164.69;5255721;28;20029;-69
2022/03/10 10:03:47;;;;;;;38.80;19.75;;;;;;;7.94;61.80;102151.41;5252484;28;20390;-69
2022/03/10 10:06:18;;;;;;;33.67;19.50;;;;;;;8.09;59.71;102157.84;5253597;28;20541;-69
2022/03/10 10:08:56;;;;;;;37.03;18.67;;;;;;;8.14;60.57;102146.06;5255039;28;20054;-68
2022/03/10 10:11:34;;;;;;;31.60;19.00;;;;;;;8.23;61.38;102144.81;5252957;28;20021;-68
2022/03/10 10:14:05;;;;;;;33.83;20.00;;;;;;;8.43;59.92;102147.41;5254944;28;20051;-68
2022/03/10 10:16:47;;;;;;;34.75;20.00;;;;;;;8.52;60.89;102148.81;5249191;28;20483;-68
2022/03/10 10:19:18;;;;;;;31.55;19.25;;;;;;;8.68;62.09;102137.44;5255454;28;20493;-68
2022/03/10 10:22:08;;;;;;;31.40;19.73;;;;;;;8.63;60.92;102140.31;5253384;28;20461;-68
2022/03/10 10:24:50;;;;;;;31.10;18.33;;;;;;;8.84;60.07;102149.09;5250829;28;20060;-68
2022/03/10 10:27:26;;;;;;;30.70;18.98;;;;;;;8.93;59.77;102142.44;5251185;28;20438;-68
2022/03/10 10:29:59;;;;;;;29.33;19.23;;;;;;;8.96;59.67;102144.97;5250546;28;20402;-68
2022/03/10 10:32:42;;;;;;;32.70;20.38;;;;;;;9.09;57.92;102139.88;5248385;28;20037;-68
2022/03/10 10:35:20;;;;;;;35.50;19.52;;;;;;;9.21;57.76;102136.63;5253892;28;20033;-69
2022/03/10 10:37:54;;;;;;;34.17;21.40;;;;;;;9.31;57.77;102143.19;5253691;28;20465;-68
2022/03/10 10:40:27;;;;;;;29.17;16.95;;;;;;;9.34;58.48;102128.84;5250362;28;20096;-67
2022/03/10 10:43:02;;;;;;;29.88;17.75;;;;;;;9.39;59.66;102133.00;5250921;28;20391;-66
2022/03/10 10:45:36;;;;;;;30.38;19.30;;;;;;;9.60;57.04;102123.06;5247587;28;20021;-66
2022/03/10 10:48:09;;;;;;;30.08;18.02;;;;;;;9.77;57.09;102123.97;5251369;28;20029;-66
2022/03/10 10:50:45;;;;;;;31.13;17.50;;;;;;;9.79;56.98;102130.09;5250401;28;20064;-67
2022/03/10 10:53:33;;;;;;;32.10;19.45;;;;;;;9.78;57.67;102131.91;5252859;28;20099;-65
2022/03/10 10:56:04;;;;;;;29.23;18.10;;;;;;;9.88;56.01;102126.09;5248495;28;20078;-65
2022/03/10 10:58:38;;;;;;;34.67;19.45;;;;;;;9.92;54.69;102119.66;5246428;28;20484;-65
2022/03/10 11:01:10;;;;;;;31.50;19.15;;;;;;;9.86;58.59;102112.84;5252369;28;20025;-64
2022/03/10 11:03:41;;;;;;;28.98;17.48;;;;;;;9.99;56.34;102118.34;5251537;28;20103;-64
2022/03/10 11:06:12;;;;;;;29.92;17.90;;;;;;;10.09;55.14;102108.94;5250556;28;20398;-66
2022/03/10 11:08:43;;;;;;;27.55;16.63;;;;;;;10.18;56.17;102108.44;5248912;28;20082;-65
2022/03/10 11:11:15;;;;;;;26.52;16.25;;;;;;;10.24;55.69;102109.03;5249903;28;20495;-65
2022/03/10 11:13:48;;;;;;;28.98;16.98;;;;;;;10.34;55.49;102108.50;5249322;28;20131;-65
2022/03/10 11:16:20;;;;;;;28.58;17.35;;;;;;;10.55;54.86;102106.44;5252102;28;20032;-65
2022/03/10 11:18:53;;;;;;;28.00;16.50;;;;;;;10.39;58.10;102109.09;5250439;28;20493;-65
2022/03/10 11:21:41;;;;;;;25.23;15.85;;;;;;;10.66;54.16;102111.19;5252102;28;20456;-64
2022/03/10 11:24:33;;;;;;;26.75;15.48;;;;;;;10.79;53.74;102101.50;5252112;28;20033;-65
2022/03/10 11:27:13;;;;;;;26.10;16.35;;;;;;;10.95;54.93;102097.97;5247664;28;20036;-65
2022/03/10 11:29:50;;;;;;;26.45;16.95;;;;;;;11.03;53.81;102100.19;5252371;28;20108;-65
2022/03/10 11:32:28;;;;;;;29.17;17.25;;;;;;;11.01;55.71;102107.41;5253960;28;20044;-65
2022/03/10 11:35:01;;;;;;;27.50;16.70;;;;;;;11.15;54.15;102091.44;5250438;28;20065;-65
2022/03/10 11:37:41;;;;;;;27.17;16.65;;;;;;;11.18;53.32;102100.16;5249715;28;20395;-65
2022/03/10 11:40:15;;;;;;;24.88;15.77;;;;;;;11.32;53.87;102082.44;5249610;28;20045;-66
2022/03/10 11:42:59;;;;;;;26.08;16.23;;;;;;;11.26;53.77;102089.00;5251984;28;20029;-65